createdAt,value
2023-11-01T00:00:35.126Z,70.30
2023-11-01T00:05:37.107Z,70.30
2023-11-01T00:10:39.240Z,70.30
2023-11-01T00:15:41.185Z,70.40
2023-11-01T00:20:42.984Z,70.30
2023-11-01T00:25:44.841Z,70.50
2023-11-01T00:30:46.625Z,70.40
2023-11-01T00:35:48.419Z,70.40
2023-11-01T00:40:50.367Z,70.50
2023-11-01T00:45:52.348Z,70.40
2023-11-01T00:50:54.135Z,70.50
2023-11-01T00:55:55.915Z,70.50
2023-11-01T01:00:57.706Z,70.50
2023-11-01T01:05:59.729Z,70.50
2023-11-01T01:11:01.635Z,70.40
2023-11-01T01:16:04.579Z,70.40
2023-11-01T01:21:06.418Z,70.50
2023-11-01T01:26:08.553Z,70.50
2023-11-01T01:31:10.325Z,70.50
2023-11-01T01:36:12.684Z,70.60
2023-11-01T01:41:14.430Z,70.60
2023-11-01T01:46:17.352Z,70.60
2023-11-01T01:51:19.151Z,70.60
2023-11-01T01:56:21.547Z,70.60
2023-11-01T02:06:44.837Z,70.50
2023-11-01T02:11:46.822Z,70.60
2023-11-01T02:16:48.620Z,70.50
2023-11-01T02:21:50.467Z,70.50
2023-11-01T02:26:52.365Z,70.50
2023-11-01T02:31:54.153Z,70.40
2023-11-01T02:36:55.997Z,70.30
2023-11-01T02:41:58.044Z,70.40
2023-11-01T02:46:59.835Z,70.40
2023-11-01T02:52:01.670Z,70.40
2023-11-01T02:57:03.545Z,70.40
2023-11-01T03:02:05.398Z,70.30
2023-11-01T03:07:07.152Z,70.40
2023-11-01T03:12:08.956Z,70.40
2023-11-01T03:17:10.913Z,70.40
2023-11-01T03:22:12.878Z,70.40
2023-11-01T03:27:14.722Z,70.40
2023-11-01T03:32:17.684Z,70.40
2023-11-01T03:37:19.714Z,70.40
2023-11-01T03:42:22.360Z,70.50
2023-11-01T03:47:24.277Z,70.40
2023-11-01T03:52:26.194Z,70.50
2023-11-01T03:57:28.068Z,70.50
2023-11-01T04:02:29.745Z,70.50
2023-11-01T04:07:31.553Z,70.50
2023-11-01T04:12:33.296Z,70.50
2023-11-01T04:17:35.086Z,70.50
2023-11-01T04:22:39.865Z,70.50
2023-11-01T04:27:43.017Z,70.50
2023-11-01T04:32:45.052Z,70.60
2023-11-01T04:37:46.924Z,70.60
2023-11-01T04:42:49.223Z,70.60
2023-11-01T04:47:51.319Z,70.60
2023-11-01T04:52:53.590Z,70.60
2023-11-01T04:57:55.442Z,70.60
2023-11-01T05:02:57.574Z,70.60
2023-11-01T05:07:59.442Z,70.60
2023-11-01T05:13:01.171Z,70.60
2023-11-01T05:18:03.166Z,70.70
2023-11-01T05:23:05.157Z,70.60
2023-11-01T05:28:07.052Z,70.70
2023-11-01T05:33:09.021Z,70.60
2023-11-01T05:38:10.793Z,70.60
2023-11-01T05:43:12.743Z,70.60
2023-11-01T05:48:14.586Z,70.80
2023-11-01T05:53:16.471Z,70.80
2023-11-01T05:58:18.319Z,70.70
2023-11-01T06:03:21.189Z,70.30
2023-11-01T06:08:23.811Z,70.10
2023-11-01T06:13:25.606Z,69.90
2023-11-01T06:18:27.496Z,69.90
2023-11-01T06:23:29.257Z,69.80
2023-11-01T06:28:31.068Z,69.70
2023-11-01T06:33:33.113Z,69.70
2023-11-01T06:38:34.988Z,69.70
2023-11-01T06:43:36.868Z,69.70
2023-11-01T06:48:39.130Z,69.70
2023-11-01T06:53:41.983Z,70.40
2023-11-01T06:58:45.238Z,71.10
2023-11-01T07:03:47.203Z,71.10
2023-11-01T07:08:49.196Z,71.50
2023-11-01T07:13:51.428Z,71.50
2023-11-01T07:18:53.372Z,71.40
2023-11-01T07:23:55.300Z,71.40
2023-11-01T07:28:57.426Z,71.30
2023-11-01T07:33:59.183Z,71.30
2023-11-01T07:39:01.106Z,71.30
2023-11-01T07:44:02.983Z,71.30
2023-11-01T07:49:04.796Z,71.30
2023-11-01T07:54:06.681Z,71.40
2023-11-01T07:59:09.356Z,71.00
2023-11-01T08:04:11.408Z,70.20
2023-11-01T08:09:13.950Z,69.70
2023-11-01T08:14:15.816Z,69.20
2023-11-01T08:19:17.799Z,68.60
2023-11-01T08:24:19.547Z,68.20
2023-11-01T08:29:21.347Z,67.80
2023-11-01T08:34:23.141Z,67.40
2023-11-01T08:39:25.807Z,67.90
2023-11-01T08:44:27.586Z,68.10
2023-11-01T08:49:29.439Z,68.40
2023-11-01T08:54:33.152Z,68.00
2023-11-01T08:59:35.090Z,67.70
2023-11-01T09:04:37.084Z,67.40
2023-11-01T09:09:38.979Z,67.10
2023-11-01T09:14:41.041Z,66.80
2023-11-01T09:19:42.835Z,66.50
2023-11-01T09:24:44.842Z,66.30
2023-11-01T09:29:46.708Z,66.10
2023-11-01T09:34:50.222Z,66.30
2023-11-01T09:39:53.755Z,66.60
2023-11-01T09:44:57.931Z,67.00
2023-11-01T09:50:01.057Z,66.70
2023-11-01T09:55:03.717Z,66.50
2023-11-01T10:00:05.854Z,66.30
2023-11-01T10:05:08.257Z,65.90
2023-11-01T10:10:16.122Z,65.70
2023-11-01T10:15:19.263Z,65.50
2023-11-01T10:20:22.008Z,65.40
2023-11-01T10:25:23.912Z,65.20
2023-11-01T10:30:26.387Z,65.60
2023-11-01T10:35:28.630Z,66.10
2023-11-01T10:40:31.156Z,66.30
2023-11-01T10:45:33.370Z,66.00
2023-11-01T10:50:35.892Z,65.70
2023-11-01T10:55:40.366Z,65.40
2023-11-01T11:00:45.622Z,65.20
2023-11-01T11:05:48.128Z,64.90
2023-11-01T11:10:49.936Z,64.70
2023-11-01T11:15:52.595Z,64.50
2023-11-01T11:20:55.457Z,64.40
2023-11-01T11:25:57.232Z,64.80
2023-11-01T11:31:08.990Z,65.30
2023-11-01T11:36:16.298Z,65.30
2023-11-01T11:41:19.355Z,65.10
2023-11-01T11:46:39.761Z,64.90
2023-11-01T11:51:49.221Z,64.70
2023-11-01T11:56:59.071Z,64.30
2023-11-01T12:02:07.370Z,64.20
2023-11-01T12:07:09.131Z,64.00
2023-11-01T12:12:12.987Z,63.80
2023-11-01T12:17:15.463Z,63.80
2023-11-01T12:22:18.115Z,64.30
2023-11-01T12:27:28.756Z,64.90
2023-11-01T12:32:40.018Z,64.70
2023-11-01T12:37:43.787Z,64.50
2023-11-01T12:42:47.479Z,64.20
2023-11-01T12:47:51.723Z,63.90
2023-11-01T12:52:53.583Z,63.80
2023-11-01T12:57:56.146Z,63.60
2023-11-01T13:02:58.607Z,63.40
2023-11-01T13:08:02.563Z,63.30
2023-11-01T13:13:07.154Z,63.30
2023-11-01T13:18:09.548Z,63.90
2023-11-01T13:23:11.348Z,64.40
2023-11-01T13:28:13.221Z,64.30
2023-11-01T13:33:15.162Z,64.10
2023-11-01T13:38:17.145Z,63.90
2023-11-01T13:43:19.027Z,63.70
2023-11-01T13:48:21.741Z,63.50
2023-11-01T13:53:25.084Z,63.40
2023-11-01T13:58:28.023Z,63.20
2023-11-01T14:03:30.155Z,63.10
2023-11-01T14:08:32.148Z,62.80
2023-11-01T14:13:34.050Z,62.80
2023-11-01T14:18:35.985Z,63.50
2023-11-01T14:23:40.497Z,63.90
2023-11-01T14:28:42.762Z,63.70
2023-11-01T14:33:44.720Z,63.50
2023-11-01T14:38:46.484Z,63.00
2023-11-01T14:43:48.389Z,63.00
2023-11-01T14:48:50.891Z,62.90
2023-11-01T14:53:52.797Z,62.70
2023-11-01T14:58:55.521Z,62.50
2023-11-01T15:03:57.281Z,62.40
2023-11-01T15:08:59.198Z,62.50
2023-11-01T15:14:01.250Z,63.10
2023-11-01T15:19:03.000Z,63.50
2023-11-01T15:24:06.030Z,63.30
2023-11-01T15:29:07.816Z,63.10
2023-11-01T15:34:09.761Z,62.80
2023-11-01T15:39:14.667Z,62.70
2023-11-01T15:44:17.122Z,62.80
2023-11-01T15:49:18.893Z,64.90
2023-11-01T15:54:20.823Z,64.40
2023-11-01T15:59:22.851Z,63.60
2023-11-01T16:04:24.682Z,63.30
2023-11-01T16:09:26.632Z,63.90
2023-11-01T16:14:29.403Z,64.20
2023-11-01T16:19:31.169Z,64.40
2023-11-01T16:24:33.076Z,64.40
2023-11-01T16:29:34.965Z,63.90
2023-11-01T16:34:39.153Z,63.20
2023-11-01T16:39:40.951Z,62.50
2023-11-01T16:44:42.823Z,62.30
2023-11-01T16:49:49.548Z,64.80
2023-11-01T16:54:51.260Z,66.60
2023-11-01T16:59:53.159Z,67.80
2023-11-01T17:04:55.144Z,71.20
2023-11-01T17:09:56.932Z,72.50
2023-11-01T17:14:58.819Z,74.00
2023-11-01T17:20:01.030Z,72.00
2023-11-01T17:25:03.318Z,71.30
2023-11-01T17:30:05.370Z,71.40
2023-11-01T17:35:07.411Z,71.40
2023-11-01T17:40:09.487Z,71.30
2023-11-01T17:45:11.435Z,71.20
2023-11-01T17:50:13.244Z,71.20
2023-11-01T17:55:17.354Z,71.40
2023-11-01T18:00:20.708Z,71.60
2023-11-01T18:05:34.593Z,72.10
2023-11-01T18:10:39.891Z,72.60
2023-11-01T18:15:42.034Z,72.20
2023-11-01T18:20:44.038Z,72.20
2023-11-01T18:26:05.612Z,72.20
2023-11-01T18:31:17.501Z,72.20
2023-11-01T18:36:19.561Z,72.30
2023-11-01T18:41:25.745Z,72.40
2023-11-01T18:46:34.716Z,72.60
2023-11-01T18:51:58.276Z,72.80
2023-11-01T18:57:00.126Z,72.80
2023-11-01T19:02:02.417Z,72.70
2023-11-01T19:07:05.140Z,72.60
2023-11-01T19:12:07.027Z,72.70
2023-11-01T19:17:08.893Z,72.70
2023-11-01T19:22:10.720Z,74.00
2023-11-01T19:27:18.387Z,73.60
2023-11-01T19:32:26.055Z,73.30
2023-11-01T19:37:27.820Z,73.10
2023-11-01T19:42:30.975Z,73.00
2023-11-01T19:47:32.787Z,72.90
2023-11-01T19:52:34.535Z,73.10
2023-11-01T19:57:36.446Z,72.90
2023-11-01T20:02:40.009Z,72.90
2023-11-01T20:07:41.867Z,72.70
2023-11-01T20:12:45.216Z,72.50
2023-11-01T20:17:48.567Z,72.60
2023-11-01T20:22:52.517Z,72.80
2023-11-01T20:27:54.487Z,73.00
2023-11-01T20:32:56.439Z,73.30
2023-11-01T20:37:58.308Z,73.20
2023-11-01T20:43:00.148Z,73.50
2023-11-01T20:48:02.061Z,73.70
2023-11-01T20:53:04.219Z,73.70
2023-11-01T20:58:07.403Z,74.00
2023-11-01T21:03:09.256Z,73.80
2023-11-01T21:08:11.032Z,73.70
2023-11-01T21:13:12.962Z,73.40
2023-11-01T21:18:14.991Z,73.10
2023-11-01T21:23:16.962Z,72.70
2023-11-01T21:28:18.695Z,72.20
2023-11-01T21:33:22.467Z,71.70
2023-11-01T21:38:25.198Z,71.20
2023-11-01T21:43:27.275Z,70.70
2023-11-01T21:48:30.717Z,70.30
2023-11-01T21:53:34.100Z,70.00
2023-11-01T21:58:37.143Z,69.70
2023-11-01T22:03:47.661Z,69.50
2023-11-01T22:08:52.995Z,69.20
2023-11-01T22:13:58.898Z,68.90
2023-11-01T22:19:32.397Z,68.70
2023-11-01T22:24:35.532Z,68.20
2023-11-01T22:29:37.379Z,67.90
2023-11-01T22:34:40.991Z,67.80
2023-11-01T22:39:43.255Z,67.70
2023-11-01T22:44:45.662Z,67.30
2023-11-01T22:49:47.473Z,67.00
2023-11-01T22:54:49.464Z,66.80
2023-11-01T22:59:51.849Z,66.70
2023-11-01T23:04:54.145Z,66.40
2023-11-01T23:09:56.105Z,66.20
2023-11-01T23:14:57.876Z,66.00
2023-11-01T23:19:59.806Z,65.90
2023-11-01T23:25:01.679Z,65.70
2023-11-01T23:30:07.684Z,65.50
2023-11-01T23:35:13.050Z,65.20
2023-11-01T23:40:21.675Z,65.20
2023-11-01T23:45:35.173Z,65.20
2023-11-01T23:50:39.434Z,65.00
2023-11-01T23:55:43.881Z,64.70
